createdAt,value
2022-08-12T00:14:34.452Z,22.8
2022-08-12T00:29:47.727Z,22.6
2022-08-12T00:45:02.531Z,22.5
2022-08-12T01:00:12.085Z,22.3
2022-08-12T01:15:21.859Z,22.5
2022-08-12T01:30:31.270Z,22.4
2022-08-12T01:45:42.944Z,22.3
2022-08-12T02:00:56.398Z,22.3
2022-08-12T02:16:06.502Z,22
2022-08-12T02:31:15.904Z,21.9
2022-08-12T02:46:24.919Z,21.5
2022-08-12T03:01:34.472Z,21.2
2022-08-12T03:16:52.344Z,21
2022-08-12T03:32:02.530Z,20.8
2022-08-12T03:47:11.425Z,20.6
2022-08-12T04:02:26.220Z,20.3
2022-08-12T04:17:35.295Z,20.3
2022-08-12T04:32:44.802Z,20.3
2022-08-12T04:47:55.424Z,20.2
2022-08-12T05:03:04.953Z,20.2
2022-08-12T05:18:16.851Z,20.2
2022-08-12T05:33:30.583Z,20.3
2022-08-12T05:48:39.835Z,20.4
2022-08-12T06:03:49.080Z,20.6
2022-08-12T06:19:02.520Z,20.8
2022-08-12T06:35:24.741Z,21
2022-08-12T06:51:02.757Z,21.3
2022-08-12T07:06:12.815Z,21.5
2022-08-12T07:21:22.146Z,21.6
2022-08-12T07:36:31.453Z,21.9
2022-08-12T07:51:40.694Z,22.2
2022-08-12T08:06:50.744Z,22.6
2022-08-12T08:22:03.168Z,23
2022-08-12T08:37:14.669Z,23.5
2022-08-12T08:52:28.798Z,23.9
2022-08-12T09:07:59.515Z,24.2
2022-08-12T09:44:04.954Z,25.6
2022-08-12T10:00:14.313Z,25.9
2022-08-12T10:16:05.437Z,26.1
2022-08-12T10:31:16.146Z,26.2
2022-08-12T10:46:30.333Z,26.4
2022-08-12T11:01:50.799Z,26.8
2022-08-12T11:20:05.790Z,27.1
2022-08-12T11:35:17.216Z,27.3
2022-08-12T11:50:32.301Z,27.7
2022-08-12T12:05:45.723Z,28.2
2022-08-12T12:20:57.430Z,31.5
2022-08-12T12:36:20.109Z,31.1
2022-08-12T12:51:48.488Z,31
2022-08-12T13:07:49.183Z,30.7
2022-08-12T13:23:35.815Z,30.8
2022-08-12T13:38:55.432Z,31
2022-08-12T13:54:06.142Z,31.2
2022-08-12T14:09:25.994Z,31.4
2022-08-12T14:24:40.235Z,32
2022-08-12T14:39:51.207Z,32.7
2022-08-12T15:12:17.268Z,35.2
2022-08-12T15:28:03.485Z,35.5
2022-08-12T15:43:51.831Z,35.3
2022-08-12T16:00:04.139Z,35.6
2022-08-12T16:15:51.028Z,33.8
2022-08-12T16:31:33.133Z,32.3
2022-08-12T16:46:43.985Z,31.3
2022-08-12T17:02:07.703Z,30.5
2022-08-12T17:17:26.532Z,30
2022-08-12T17:32:53.215Z,29.5
2022-08-12T17:50:58.954Z,29.7
2022-08-12T18:06:14.337Z,28.8
2022-08-12T18:21:24.573Z,28.4
2022-08-12T18:37:27.106Z,28.1
2022-08-12T18:52:51.964Z,27.2
2022-08-12T19:08:02.279Z,26
2022-08-12T19:23:16.506Z,25.5
2022-08-12T19:38:32.083Z,25.2
2022-08-12T19:53:57.157Z,24.9
2022-08-12T20:09:07.877Z,24.7
2022-08-12T20:24:19.059Z,24.6
2022-08-12T20:39:35.997Z,25
2022-08-12T20:55:15.417Z,25
2022-08-12T21:10:28.812Z,24.9
2022-08-12T21:25:46.097Z,24.7
2022-08-12T21:40:55.463Z,24.5
2022-08-12T21:56:05.417Z,24.2
2022-08-12T22:11:14.858Z,24
2022-08-12T22:27:18.409Z,23.8
2022-08-12T22:42:43.322Z,23.6
2022-08-12T22:58:01.027Z,23.4
2022-08-12T23:13:10.625Z,23.1
2022-08-12T23:30:40.668Z,23.7
2022-08-12T23:46:00.270Z,22.9
